Welcome to Northern Hawkes Bay. New Zealand.
PWS Header
      nz Flag



Hit Counter


W3C Valid W3C Valid logo


    Wairoa

Select any of the Stations below to visit their websites.










Historic Data from Weather Underground
Select the location of interest below. Wairoa is the default. Please have patience, this Data is slow to load in.
Northern Hawkes Bay Historical Data
Daily Summary for May 6, 2017 Units:  Metric    English   Both
« Previous Day
Next Day »
Daily Weekly Monthly Yearly Custom
  High: Low: Average:
Temperature: 17.3 °C 4.7 °C 10.1 °C
Dew Point: 9.8 °C 4.6 °C 7.2 °C
Humidity: 99% 56% 84%
Wind Speed: 17.2km/h 0.0km/h 5.7km/h
Wind Gust: 23.3km/h - -
Wind- - WNW
Pressure: 1028.7 hPa 1024.3 hPa -
Precipitation: 0.0 mm    
Historical Graphs
 
 
Tabular Data for May 6, 2017
Time Temperature Dew Point Pressure Wind Wind Speed Wind Gust Humidity Rainfall Rate (Hourly) solar
00:03 6.3 °C 5.7 °C 1024.6 hPa NW 2.6 km/h 6.1 km/h 96% 0.0 mm 0 W/m2
00:08 6.3 °C 5.7 °C 1024.6 hPa NW 2.6 km/h 5.0 km/h 96% 0.0 mm 0 W/m2
00:13 6.2 °C 5.6 °C 1024.3 hPa NNW 3.5 km/h 6.1 km/h 96% 0.0 mm 0 W/m2
00:18 6.2 °C 5.8 °C 1024.6 hPa NNW 3.5 km/h 6.1 km/h 97% 0.0 mm 0 W/m2
00:23 6.1 °C 5.7 °C 1024.6 hPa NNW 5.0 km/h 6.1 km/h 97% 0.0 mm 0 W/m2
00:28 6.1 °C 5.7 °C 1024.6 hPa NW 3.5 km/h 6.1 km/h 97% 0.0 mm 0 W/m2
00:33 6.1 °C 5.7 °C 1024.6 hPa NW 5.0 km/h 7.2 km/h 97% 0.0 mm 0 W/m2
00:38 6.1 °C 5.7 °C 1024.6 hPa NNW 5.0 km/h 9.7 km/h 97% 0.0 mm 0 W/m2
00:43 6.0 °C 5.6 °C 1024.6 hPa NW 5.0 km/h 9.7 km/h 97% 0.0 mm 0 W/m2
00:48 6.0 °C 5.6 °C 1024.6 hPa NNW 6.1 km/h 8.7 km/h 97% 0.0 mm 0 W/m2
00:53 6.0 °C 5.6 °C 1024.9 hPa NNW 5.0 km/h 8.7 km/h 97% 0.0 mm 0 W/m2
00:58 5.9 °C 5.8 °C 1024.6 hPa NW 3.5 km/h 8.7 km/h 99% 0.0 mm 0 W/m2
01:03 5.8 °C 5.7 °C 1024.6 hPa NNW 5.0 km/h 8.7 km/h 99% 0.0 mm 0 W/m2
01:08 5.8 °C 5.7 °C 1024.9 hPa NW 5.0 km/h 8.7 km/h 99% 0.0 mm 0 W/m2
01:13 5.8 °C 5.7 °C 1024.9 hPa NW 5.0 km/h 9.7 km/h 99% 0.0 mm 0 W/m2
01:18 5.9 °C 5.8 °C 1024.9 hPa NW 6.1 km/h 11.1 km/h 99% 0.0 mm 0 W/m2
01:23 5.9 °C 5.8 °C 1024.9 hPa NW 6.1 km/h 11.1 km/h 99% 0.0 mm 0 W/m2
01:28 5.9 °C 5.8 °C 1024.9 hPa NW 6.1 km/h 12.2 km/h 99% 0.0 mm 0 W/m2
01:33 5.8 °C 5.7 °C 1024.9 hPa NNW 7.2 km/h 12.2 km/h 99% 0.0 mm 0 W/m2
01:38 5.8 °C 5.7 °C 1024.9 hPa NNW 7.2 km/h 11.1 km/h 99% 0.0 mm 0 W/m2
01:43 5.8 °C 5.7 °C 1024.9 hPa NNW 6.1 km/h 9.7 km/h 99% 0.0 mm 0 W/m2
01:48 5.7 °C 5.6 °C 1024.9 hPa NNW 5.0 km/h 9.7 km/h 99% 0.0 mm 0 W/m2
01:53 5.7 °C 5.6 °C 1024.9 hPa NNW 5.0 km/h 9.7 km/h 99% 0.0 mm 0 W/m2
01:58 5.7 °C 5.6 °C 1024.9 hPa NNW 3.5 km/h 9.7 km/h 99% 0.0 mm 0 W/m2
02:03 5.7 °C 5.6 °C 1024.9 hPa NW 3.5 km/h 8.7 km/h 99% 0.0 mm 0 W/m2
02:08 5.7 °C 5.6 °C 1024.9 hPa NW 5.0 km/h 8.7 km/h 99% 0.0 mm 0 W/m2
02:13 5.7 °C 5.6 °C 1024.9 hPa NW 5.0 km/h 7.2 km/h 99% 0.0 mm 0 W/m2
02:18 5.7 °C 5.6 °C 1024.9 hPa NNW 6.1 km/h 7.2 km/h 99% 0.0 mm 0 W/m2
02:23 5.6 °C 5.4 °C 1024.9 hPa NNW 3.5 km/h 8.7 km/h 99% 0.0 mm 0 W/m2
02:28 5.6 °C 5.4 °C 1024.9 hPa NNW 3.5 km/h 8.7 km/h 99% 0.0 mm 0 W/m2
02:33 5.5 °C 5.3 °C 1024.9 hPa NNW 5.0 km/h 7.2 km/h 99% 0.0 mm 0 W/m2
02:38 5.5 °C 5.3 °C 1024.9 hPa NNW 7.2 km/h 8.7 km/h 99% 0.0 mm 0 W/m2
02:43 5.4 °C 5.3 °C 1024.9 hPa NW 5.0 km/h 8.7 km/h 99% 0.0 mm 0 W/m2
02:48 5.4 °C 5.3 °C 1024.9 hPa NW 5.0 km/h 8.7 km/h 99% 0.0 mm 0 W/m2
02:53 5.3 °C 5.2 °C 1024.9 hPa NW 5.0 km/h 8.7 km/h 99% 0.0 mm 0 W/m2
02:58 5.4 °C 5.3 °C 1024.9 hPa NW 5.0 km/h 9.7 km/h 99% 0.0 mm 0 W/m2
03:03 5.4 °C 5.3 °C 1024.9 hPa NW 6.1 km/h 9.7 km/h 99% 0.0 mm 0 W/m2
03:08 5.4 °C 5.3 °C 1024.9 hPa NW 5.0 km/h 9.7 km/h 99% 0.0 mm 0 W/m2
03:13 5.4 °C 5.3 °C 1024.9 hPa NW 5.0 km/h 9.7 km/h 99% 0.0 mm 0 W/m2
03:18 5.3 °C 5.2 °C 1024.9 hPa NW 5.0 km/h 8.7 km/h 99% 0.0 mm 0 W/m2
03:23 5.3 °C 5.2 °C 1024.9 hPa NW 6.1 km/h 11.1 km/h 99% 0.0 mm 0 W/m2
03:28 5.2 °C 5.1 °C 1024.9 hPa NW 3.5 km/h 11.1 km/h 99% 0.0 mm 0 W/m2
03:33 5.2 °C 5.1 °C 1024.9 hPa NW 3.5 km/h 8.7 km/h 99% 0.0 mm 0 W/m2
03:38 5.2 °C 5.1 °C 1024.9 hPa NW 3.5 km/h 9.7 km/h 99% 0.0 mm 0 W/m2
03:43 5.2 °C 5.1 °C 1024.9 hPa NW 3.5 km/h 9.7 km/h 99% 0.0 mm 0 W/m2
03:48 5.2 °C 5.1 °C 1024.9 hPa NW 3.5 km/h 8.7 km/h 99% 0.0 mm 0 W/m2
03:53 5.1 °C 4.9 °C 1024.9 hPa NW 5.0 km/h 8.7 km/h 99% 0.0 mm 0 W/m2
03:58 5.1 °C 4.9 °C 1024.9 hPa NNW 5.0 km/h 8.7 km/h 99% 0.0 mm 0 W/m2
04:03 5.0 °C 4.8 °C 1024.9 hPa NNW 7.2 km/h 9.7 km/h 99% 0.0 mm 0 W/m2
04:08 5.0 °C 4.8 °C 1024.9 hPa NW 3.5 km/h 9.7 km/h 99% 0.0 mm 0 W/m2
04:13 5.0 °C 4.8 °C 1024.9 hPa NW 5.0 km/h 9.7 km/h 99% 0.0 mm 0 W/m2
04:18 5.0 °C 4.8 °C 1024.9 hPa NNW 5.0 km/h 8.7 km/h 99% 0.0 mm 0 W/m2
04:23 5.0 °C 4.8 °C 1024.9 hPa NNW 3.5 km/h 8.7 km/h 99% 0.0 mm 0 W/m2
04:28 4.9 °C 4.8 °C 1024.9 hPa Calm   8.7 km/h 99% 0.0 mm 0 W/m2
04:33 4.9 °C 4.8 °C 1025.3 hPa NNW 3.5 km/h 8.7 km/h 99% 0.0 mm 0 W/m2
04:38 4.9 °C 4.8 °C 1024.9 hPa NNW 3.5 km/h 7.2 km/h 99% 0.0 mm 0 W/m2
04:43 4.9 °C 4.8 °C 1025.3 hPa NW 6.1 km/h 12.2 km/h 99% 0.0 mm 0 W/m2
04:48 4.9 °C 4.8 °C 1025.3 hPa NW 7.2 km/h 12.2 km/h 99% 0.0 mm 0 W/m2
04:53 5.0 °C 4.8 °C 1024.9 hPa NNW 7.2 km/h 12.2 km/h 99% 0.0 mm 0 W/m2
04:58 4.9 °C 4.8 °C 1024.9 hPa NW 7.2 km/h 12.2 km/h 99% 0.0 mm 0 W/m2
05:03 5.0 °C 4.8 °C 1024.9 hPa NW 7.2 km/h 12.2 km/h 99% 0.0 mm 0 W/m2
05:08 5.0 °C 4.8 °C 1025.3 hPa NNW 5.0 km/h 12.2 km/h 99% 0.0 mm 0 W/m2
05:13 5.0 °C 4.8 °C 1025.3 hPa NNW 5.0 km/h 11.1 km/h 99% 0.0 mm 0 W/m2
05:18 5.0 °C 4.8 °C 1025.3 hPa NW 7.2 km/h 11.1 km/h 99% 0.0 mm 0 W/m2
05:23 5.0 °C 4.8 °C 1025.3 hPa NW 3.5 km/h 11.1 km/h 99% 0.0 mm 0 W/m2
05:28 5.0 °C 4.8 °C 1025.3 hPa NW 5.0 km/h 9.7 km/h 99% 0.0 mm 0 W/m2
05:33 5.0 °C 4.8 °C 1025.3 hPa NNW 6.1 km/h 9.7 km/h 99% 0.0 mm 0 W/m2
05:38 5.1 °C 4.9 °C 1025.6 hPa NNW 7.2 km/h 11.1 km/h 99% 0.0 mm 0 W/m2
05:43 5.1 °C 4.9 °C 1025.3 hPa NNW 5.0 km/h 11.1 km/h 99% 0.0 mm 0 W/m2
05:48 5.1 °C 4.9 °C 1025.6 hPa NNW 6.1 km/h 11.1 km/h 99% 0.0 mm 0 W/m2
05:53 5.0 °C 4.8 °C 1025.6 hPa NNW 7.2 km/h 11.1 km/h 99% 0.0 mm 0 W/m2
05:58 5.0 °C 4.8 °C 1026.0 hPa NNW 5.0 km/h 12.2 km/h 99% 0.0 mm 0 W/m2
06:03 5.0 °C 4.8 °C 1025.6 hPa NNW 2.6 km/h 12.2 km/h 99% 0.0 mm 0 W/m2
06:08 4.9 °C 4.8 °C 1025.6 hPa NNW 3.5 km/h 9.7 km/h 99% 0.0 mm 0 W/m2
06:13 4.9 °C 4.8 °C 1025.6 hPa NNW 3.5 km/h 8.7 km/h 99% 0.0 mm 0 W/m2
06:18 4.8 °C 4.7 °C 1025.6 hPa NNW 2.6 km/h 8.7 km/h 99% 0.0 mm 0 W/m2
06:23 4.8 °C 4.7 °C 1025.6 hPa NNW 5.0 km/h 7.2 km/h 99% 0.0 mm 0 W/m2
06:28 4.7 °C 4.6 °C 1026.0 hPa NNW 6.1 km/h 12.2 km/h 99% 0.0 mm 0 W/m2
06:33 4.7 °C 4.6 °C 1025.6 hPa NNW 8.7 km/h 12.2 km/h 99% 0.0 mm 0 W/m2
06:38 4.9 °C 4.8 °C 1025.6 hPa NNW 7.2 km/h 14.8 km/h 99% 0.0 mm 0 W/m2
06:43 5.0 °C 4.8 °C 1026.0 hPa NNW 6.1 km/h 14.8 km/h 99% 0.0 mm 0 W/m2
06:48 5.0 °C 4.8 °C 1025.6 hPa NNW 7.2 km/h 11.1 km/h 99% 0.0 mm 0 W/m2
06:53 5.0 °C 4.8 °C 1026.0 hPa NNW 8.7 km/h 11.1 km/h 99% 0.0 mm 1 W/m2
06:58 5.0 °C 4.8 °C 1026.0 hPa NNW 6.1 km/h 13.4 km/h 99% 0.0 mm 3 W/m2
07:03 5.0 °C 4.8 °C 1026.0 hPa NNW 6.1 km/h 13.4 km/h 99% 0.0 mm 6 W/m2
07:08 5.0 °C 4.8 °C 1026.0 hPa NNW 6.1 km/h 11.1 km/h 99% 0.0 mm 9 W/m2
07:13 5.1 °C 4.9 °C 1026.0 hPa NNW 6.1 km/h 11.1 km/h 99% 0.0 mm 13 W/m2
07:18 5.1 °C 4.9 °C 1026.0 hPa NNW 6.1 km/h 12.2 km/h 99% 0.0 mm 16 W/m2
07:23 5.3 °C 5.2 °C 1026.0 hPa NNW 6.1 km/h 12.2 km/h 99% 0.0 mm 48 W/m2
07:28 5.5 °C 5.3 °C 1026.3 hPa NNW 5.0 km/h 11.1 km/h 99% 0.0 mm 66 W/m2
07:33 5.7 °C 5.4 °C 1026.3 hPa NNW 6.1 km/h 9.7 km/h 98% 0.0 mm 81 W/m2
07:38 6.0 °C 5.4 °C 1026.3 hPa NNW 5.0 km/h 9.7 km/h 96% 0.0 mm 94 W/m2
07:43 6.1 °C 5.3 °C 1026.3 hPa NNW 5.0 km/h 14.8 km/h 95% 0.0 mm 106 W/m2
07:48 6.3 °C 5.4 °C 1026.3 hPa NNW 7.2 km/h 14.8 km/h 94% 0.0 mm 118 W/m2
07:53 6.4 °C 5.3 °C 1026.3 hPa NNW 7.2 km/h 14.8 km/h 93% 0.0 mm 130 W/m2
07:58 6.6 °C 5.4 °C 1026.3 hPa NNW 7.2 km/h 14.8 km/h 92% 0.0 mm 141 W/m2
08:03 6.8 °C 5.6 °C 1026.3 hPa NW 8.7 km/h 15.8 km/h 92% 0.0 mm 153 W/m2
08:08 7.1 °C 5.4 °C 1026.3 hPa NNW 5.0 km/h 15.8 km/h 89% 0.0 mm 164 W/m2
08:13 7.3 °C 5.4 °C 1026.3 hPa NNW 6.1 km/h 15.8 km/h 88% 0.0 mm 175 W/m2
08:18 7.5 °C 5.5 °C 1026.6 hPa NNW 7.2 km/h 14.8 km/h 87% 0.0 mm 186 W/m2
08:23 7.8 °C 5.6 °C 1026.6 hPa NNW 5.0 km/h 14.8 km/h 86% 0.0 mm 197 W/m2
08:28 8.1 °C 5.9 °C 1026.6 hPa NNW 8.7 km/h 13.4 km/h 86% 0.0 mm 207 W/m2
08:33 8.3 °C 5.9 °C 1026.6 hPa NNW 7.2 km/h 13.4 km/h 85% 0.0 mm 220 W/m2
08:38 8.5 °C 6.1 °C 1026.6 hPa NNW 8.7 km/h 13.4 km/h 85% 0.0 mm 234 W/m2
08:44 8.8 °C 6.4 °C 1026.6 hPa NNW 9.7 km/h 17.2 km/h 85% 0.0 mm 249 W/m2
08:49 8.9 °C 6.3 °C 1027.0 hPa NNW 7.2 km/h 17.2 km/h 84% 0.0 mm 261 W/m2
08:54 9.1 °C 6.4 °C 1026.6 hPa NNW 9.7 km/h 17.2 km/h 83% 0.0 mm 269 W/m2
08:59 9.3 °C 6.6 °C 1026.6 hPa North 9.7 km/h 15.8 km/h 83% 0.0 mm 278 W/m2
09:04 9.6 °C 6.7 °C 1027.0 hPa North 6.1 km/h 15.8 km/h 82% 0.0 mm 287 W/m2
09:09 9.9 °C 6.8 °C 1026.6 hPa NNW 9.7 km/h 15.8 km/h 81% 0.0 mm 296 W/m2
09:14 10.1 °C 6.8 °C 1026.6 hPa NNW 2.6 km/h 14.8 km/h 80% 0.0 mm 303 W/m2
09:19 10.6 °C 7.1 °C 1027.0 hPa NNW 7.2 km/h 14.8 km/h 79% 0.0 mm 309 W/m2
09:24 10.8 °C 7.1 °C 1026.6 hPa NNW 7.2 km/h 12.2 km/h 78% 0.0 mm 312 W/m2
09:29 11.2 °C 7.3 °C 1026.6 hPa NNW 2.6 km/h 12.2 km/h 77% 0.0 mm 288 W/m2
09:34 11.6 °C 7.5 °C 1027.0 hPa NNW 7.2 km/h 11.1 km/h 76% 0.0 mm 131 W/m2
09:39 11.5 °C 7.2 °C 1027.0 hPa NNW 7.2 km/h 12.2 km/h 75% 0.0 mm 67 W/m2
09:44 11.7 °C 7.4 °C 1027.0 hPa NNW 6.1 km/h 12.2 km/h 75% 0.0 mm 60 W/m2
09:49 11.8 °C 7.3 °C 1027.0 hPa NNW 2.6 km/h 11.1 km/h 74% 0.0 mm 58 W/m2
09:54 12.2 °C 7.5 °C 1027.0 hPa NNW 6.1 km/h 11.1 km/h 73% 0.0 mm 58 W/m2
09:59 13.0 °C 8.3 °C 1027.0 hPa NNW 5.0 km/h 11.1 km/h 73% 0.0 mm 58 W/m2
10:04 13.4 °C 8.3 °C 1027.0 hPa NNW 5.0 km/h 9.7 km/h 71% 0.0 mm 58 W/m2
10:09 13.4 °C 8.1 °C 1027.0 hPa NNW 2.6 km/h 9.7 km/h 70% 0.0 mm 60 W/m2
10:14 13.8 °C 8.6 °C 1027.0 hPa Calm   9.7 km/h 71% 0.0 mm 78 W/m2
10:19 14.2 °C 8.6 °C 1027.3 hPa NNW 7.2 km/h 9.7 km/h 69% 0.0 mm 169 W/m2
10:24 14.3 °C 8.7 °C 1027.0 hPa NW 3.5 km/h 9.7 km/h 69% 0.0 mm 305 W/m2
10:29 14.9 °C 9.5 °C 1027.0 hPa Calm   9.7 km/h 70% 0.0 mm 351 W/m2
10:34 15.5 °C 9.2 °C 1027.0 hPa NNW 5.0 km/h 8.7 km/h 66% 0.0 mm 359 W/m2
10:39 15.4 °C 9.1 °C 1027.0 hPa NNW 5.0 km/h 8.7 km/h 66% 0.0 mm 367 W/m2
10:44 15.9 °C 9.8 °C 1027.0 hPa Calm   8.7 km/h 67% 0.0 mm 372 W/m2
10:49 16.3 °C 9.3 °C 1027.0 hPa NW 2.6 km/h 6.1 km/h 63% 0.0 mm 377 W/m2
10:54 16.0 °C 8.7 °C 1027.3 hPa WSW 11.1 km/h 18.3 km/h 62% 0.0 mm 376 W/m2
10:59 15.8 °C 8.6 °C 1027.3 hPa WSW 7.2 km/h 18.3 km/h 62% 0.0 mm 383 W/m2
11:04 15.7 °C 8.4 °C 1027.3 hPa WSW 9.7 km/h 19.5 km/h 62% 0.0 mm 382 W/m2
11:09 15.5 °C 8.3 °C 1027.3 hPa WSW 7.2 km/h 19.5 km/h 62% 0.0 mm 425 W/m2
11:14 15.5 °C 8.5 °C 1027.3 hPa WSW 9.7 km/h 20.9 km/h 63% 0.0 mm 275 W/m2
11:19 15.6 °C 8.6 °C 1027.0 hPa WSW 7.2 km/h 20.9 km/h 63% 0.0 mm 443 W/m2
11:24 15.7 °C 8.4 °C 1027.3 hPa WSW 9.7 km/h 20.9 km/h 62% 0.0 mm 325 W/m2
11:29 15.4 °C 8.2 °C 1027.3 hPa WSW 13.4 km/h 20.9 km/h 62% 0.0 mm 408 W/m2
11:34 15.4 °C 8.4 °C 1027.3 hPa SW 13.4 km/h 19.5 km/h 63% 0.0 mm 394 W/m2
11:39 15.8 °C 8.8 °C 1027.0 hPa SW 12.2 km/h 19.5 km/h 63% 0.0 mm 388 W/m2
11:44 15.6 °C 8.1 °C 1027.3 hPa WSW 11.1 km/h 19.5 km/h 61% 0.0 mm 385 W/m2
11:49 15.5 °C 8.0 °C 1027.0 hPa WSW 15.8 km/h 21.9 km/h 61% 0.0 mm 383 W/m2
11:54 15.5 °C 8.5 °C 1027.0 hPa WSW 15.8 km/h 21.9 km/h 63% 0.0 mm 382 W/m2
11:59 15.5 °C 8.5 °C 1027.3 hPa SW 11.1 km/h 21.9 km/h 63% 0.0 mm 380 W/m2
12:04 15.6 °C 8.6 °C 1027.0 hPa SW 7.2 km/h 18.3 km/h 63% 0.0 mm 378 W/m2
12:09 15.6 °C 8.3 °C 1027.0 hPa WSW 14.8 km/h 19.5 km/h 62% 0.0 mm 373 W/m2
12:14 15.7 °C 8.7 °C 1027.0 hPa WSW 7.2 km/h 19.5 km/h 63% 0.0 mm 372 W/m2
12:19 16.0 °C 8.7 °C 1027.0 hPa WSW 9.7 km/h 19.5 km/h 62% 0.0 mm 370 W/m2
12:24 15.9 °C 8.9 °C 1026.6 hPa SW 9.7 km/h 18.3 km/h 63% 0.0 mm 368 W/m2
12:29 15.9 °C 8.9 °C 1027.0 hPa WSW 13.4 km/h 20.9 km/h 63% 0.0 mm 365 W/m2
12:34 16.0 °C 8.7 °C 1026.6 hPa WSW 8.7 km/h 20.9 km/h 62% 0.0 mm 361 W/m2
12:35 16.0 °C 8.5 °C 1026.6 hPa WSW 12.2 km/h 20.9 km/h 61% 0.0 mm 359 W/m2
12:40 16.1 °C 7.8 °C 1027.0 hPa West 15.8 km/h 23.3 km/h 58% 0.0 mm 355 W/m2
12:45 15.9 °C 7.9 °C 1026.6 hPa WSW 11.1 km/h 23.3 km/h 59% 0.0 mm 352 W/m2
12:50 16.1 °C 8.1 °C 1026.6 hPa SW 17.2 km/h 23.3 km/h 59% 0.0 mm 349 W/m2
12:55 16.4 °C 8.6 °C 1026.6 hPa SW 12.2 km/h 23.3 km/h 60% 0.0 mm 345 W/m2
13:00 16.4 °C 8.1 °C 1026.6 hPa WSW 17.2 km/h 20.9 km/h 58% 0.0 mm 340 W/m2
13:06 16.6 °C 8.8 °C 1026.6 hPa WSW 15.8 km/h 20.9 km/h 60% 0.0 mm 332 W/m2
13:11 16.5 °C 7.9 °C 1026.3 hPa SW 12.2 km/h 19.5 km/h 57% 0.0 mm 326 W/m2
13:16 16.3 °C 7.8 °C 1026.3 hPa WSW 11.1 km/h 19.5 km/h 57% 0.0 mm 314 W/m2
13:21 16.5 °C 8.2 °C 1026.6 hPa SW 8.7 km/h 19.5 km/h 58% 0.0 mm 297 W/m2
13:26 16.4 °C 8.1 °C 1026.3 hPa WSW 11.1 km/h 19.5 km/h 58% 0.0 mm 271 W/m2
13:31 16.4 °C 8.6 °C 1026.3 hPa SW 11.1 km/h 19.5 km/h 60% 0.0 mm 231 W/m2
13:36 16.7 °C 8.4 °C 1026.6 hPa SW 9.7 km/h 18.3 km/h 58% 0.0 mm 180 W/m2
13:41 16.5 °C 8.2 °C 1026.3 hPa SW 8.7 km/h 19.5 km/h 58% 0.0 mm 122 W/m2
13:46 16.6 °C 8.3 °C 1026.3 hPa SW 8.7 km/h 19.5 km/h 58% 0.0 mm 92 W/m2
13:51 16.8 °C 8.7 °C 1026.3 hPa SW 9.7 km/h 18.3 km/h 59% 0.0 mm 68 W/m2
13:56 17.0 °C 8.4 °C 1026.3 hPa SW 12.2 km/h 20.9 km/h 57% 0.0 mm 65 W/m2
14:01 17.2 °C 8.3 °C 1026.6 hPa SW 6.1 km/h 20.9 km/h 56% 0.0 mm 65 W/m2
14:06 17.3 °C 8.7 °C 1026.6 hPa SW 12.2 km/h 20.9 km/h 57% 0.0 mm 65 W/m2
14:11 17.0 °C 8.2 °C 1026.6 hPa SW 13.4 km/h 20.9 km/h 56% 0.0 mm 66 W/m2
14:16 16.8 °C 9.0 °C 1026.6 hPa SW 8.7 km/h 20.9 km/h 60% 0.0 mm 68 W/m2
14:21 17.3 °C 8.9 °C 1026.6 hPa WSW 9.7 km/h 19.5 km/h 58% 0.0 mm 69 W/m2
14:26 16.8 °C 9.0 °C 1026.6 hPa WSW 11.1 km/h 20.9 km/h 60% 0.0 mm 70 W/m2
14:31 16.6 °C 9.3 °C 1026.6 hPa WSW 6.1 km/h 20.9 km/h 62% 0.0 mm 70 W/m2
14:36 16.9 °C 9.3 °C 1026.6 hPa WSW 11.1 km/h 19.5 km/h 61% 0.0 mm 70 W/m2
14:41 16.8 °C 9.5 °C 1026.6 hPa SW 13.4 km/h 17.2 km/h 62% 0.0 mm 70 W/m2
14:46 16.6 °C 9.3 °C 1026.6 hPa SW 8.7 km/h 17.2 km/h 62% 0.0 mm 69 W/m2
14:51 16.8 °C 9.5 °C 1026.6 hPa WSW 12.2 km/h 17.2 km/h 62% 0.0 mm 70 W/m2
14:56 16.8 °C 9.5 °C 1026.6 hPa SW 9.7 km/h 15.8 km/h 62% 0.0 mm 78 W/m2
15:01 16.3 °C 9.3 °C 1026.6 hPa SW 6.1 km/h 17.2 km/h 63% 0.0 mm 121 W/m2
15:06 16.5 °C 9.4 °C 1026.6 hPa SW 9.7 km/h 17.2 km/h 63% 0.0 mm 146 W/m2
15:11 16.4 °C 9.3 °C 1026.6 hPa WSW 9.7 km/h 15.8 km/h 63% 0.0 mm 181 W/m2
15:16 16.6 °C 9.3 °C 1026.6 hPa WSW 8.7 km/h 15.8 km/h 62% 0.0 mm 180 W/m2
15:21 16.8 °C 9.5 °C 1026.6 hPa WSW 11.1 km/h 13.4 km/h 62% 0.0 mm 173 W/m2
15:26 16.8 °C 9.5 °C 1026.6 hPa WSW 8.7 km/h 13.4 km/h 62% 0.0 mm 164 W/m2
15:31 16.8 °C 9.5 °C 1026.6 hPa WSW 7.2 km/h 13.4 km/h 62% 0.0 mm 154 W/m2
15:36 17.0 °C 9.4 °C 1026.6 hPa WSW 6.1 km/h 13.4 km/h 61% 0.0 mm 145 W/m2
15:41 17.2 °C 9.6 °C 1026.6 hPa WSW 5.0 km/h 11.1 km/h 61% 0.0 mm 133 W/m2
15:46 17.1 °C 9.5 °C 1026.6 hPa WSW 7.2 km/h 11.1 km/h 61% 0.0 mm 119 W/m2
15:51 17.1 °C 9.5 °C 1026.6 hPa SW 5.0 km/h 11.1 km/h 61% 0.0 mm 106 W/m2
15:56 17.2 °C 9.6 °C 1026.6 hPa SW 7.2 km/h 11.1 km/h 61% 0.0 mm 93 W/m2
16:01 17.0 °C 9.4 °C 1026.3 hPa SW 5.0 km/h 11.1 km/h 61% 0.0 mm 79 W/m2
16:06 16.9 °C 9.6 °C 1026.3 hPa SW 5.0 km/h 11.1 km/h 62% 0.0 mm 63 W/m2
16:11 16.8 °C 9.7 °C 1026.6 hPa SW 3.5 km/h 11.1 km/h 63% 0.0 mm 55 W/m2
16:16 17.1 °C 9.5 °C 1026.6 hPa WSW 5.0 km/h 9.7 km/h 61% 0.0 mm 49 W/m2
16:21 16.9 °C 9.6 °C 1026.6 hPa WSW 3.5 km/h 9.7 km/h 62% 0.0 mm 48 W/m2
16:26 16.8 °C 9.5 °C 1026.6 hPa SW 3.5 km/h 9.7 km/h 62% 0.0 mm 50 W/m2
16:31 16.9 °C 9.6 °C 1026.6 hPa SW 3.5 km/h 7.2 km/h 62% 0.0 mm 49 W/m2
16:36 17.0 °C 9.7 °C 1027.0 hPa WSW 1.1 km/h 6.1 km/h 62% 0.0 mm 47 W/m2
16:41 17.0 °C 9.4 °C 1026.6 hPa WSW 1.1 km/h 5.0 km/h 61% 0.0 mm 44 W/m2
16:46 17.0 °C 9.7 °C 1027.0 hPa Calm   5.0 km/h 62% 0.0 mm 37 W/m2
16:51 17.2 °C 9.6 °C 1027.0 hPa Calm   3.5 km/h 61% 0.0 mm 30 W/m2
16:56 16.8 °C 9.5 °C 1027.0 hPa WNW 1.1 km/h 5.0 km/h 62% 0.0 mm 22 W/m2
17:01 16.1 °C 9.1 °C 1027.0 hPa NW 2.6 km/h 5.0 km/h 63% 0.0 mm 13 W/m2
17:06 15.1 °C 8.8 °C 1027.0 hPa Calm   3.5 km/h 66% 0.0 mm 9 W/m2
17:11 14.4 °C 8.8 °C 1027.0 hPa Calm   3.5 km/h 69% 0.0 mm 6 W/m2
17:16 13.9 °C 8.9 °C 1027.0 hPa Calm     72% 0.0 mm 3 W/m2
17:21 13.5 °C 8.8 °C 1027.0 hPa Calm     73% 0.0 mm 0 W/m2
17:26 13.2 °C 8.9 °C 1027.0 hPa Calm     75% 0.0 mm 0 W/m2
17:31 12.9 °C 8.8 °C 1027.0 hPa Calm   2.6 km/h 76% 0.0 mm 0 W/m2
17:36 12.6 °C 8.7 °C 1027.0 hPa Calm   2.6 km/h 77% 0.0 mm 0 W/m2
17:41 12.3 °C 8.6 °C 1027.0 hPa Calm   2.6 km/h 78% 0.0 mm 0 W/m2
17:46 12.0 °C 8.7 °C 1027.0 hPa Calm   2.6 km/h 80% 0.0 mm 0 W/m2
17:51 11.8 °C 8.8 °C 1027.3 hPa Calm   2.6 km/h 82% 0.0 mm 0 W/m2
17:56 11.5 °C 8.7 °C 1027.0 hPa Calm     83% 0.0 mm 0 W/m2
18:01 11.4 °C 8.8 °C 1027.3 hPa Calm     84% 0.0 mm 0 W/m2
18:06 11.2 °C 8.6 °C 1027.3 hPa Calm     84% 0.0 mm 0 W/m2
18:12 11.0 °C 8.6 °C 1027.3 hPa Calm   2.6 km/h 85% 0.0 mm 0 W/m2
18:17 10.9 °C 8.8 °C 1027.7 hPa North 1.1 km/h 6.1 km/h 87% 0.0 mm 0 W/m2
18:22 10.9 °C 9.0 °C 1027.7 hPa Calm   6.1 km/h 88% 0.0 mm 0 W/m2
18:27 10.8 °C 9.1 °C 1027.3 hPa Calm   2.6 km/h 89% 0.0 mm 0 W/m2
18:32 10.7 °C 8.9 °C 1027.7 hPa Calm     89% 0.0 mm 0 W/m2
18:37 10.5 °C 8.8 °C 1027.7 hPa Calm     89% 0.0 mm 0 W/m2
18:42 10.4 °C 8.7 °C 1027.7 hPa Calm     89% 0.0 mm 0 W/m2
18:47 10.2 °C 8.6 °C 1027.7 hPa Calm   3.5 km/h 90% 0.0 mm 0 W/m2
18:52 10.0 °C 8.4 °C 1027.3 hPa Calm   3.5 km/h 90% 0.0 mm 0 W/m2
18:57 9.9 °C 8.5 °C 1027.7 hPa Calm     91% 0.0 mm 0 W/m2
19:02 9.6 °C 8.4 °C 1027.7 hPa Calm   2.6 km/h 92% 0.0 mm 0 W/m2
19:07 9.4 °C 8.2 °C 1027.7 hPa Calm   2.6 km/h 92% 0.0 mm 0 W/m2
19:12 9.3 °C 8.2 °C 1027.7 hPa NW 2.6 km/h 5.0 km/h 93% 0.0 mm 0 W/m2
19:17 9.3 °C 8.4 °C 1027.7 hPa Calm   5.0 km/h 94% 0.0 mm 0 W/m2
19:22 9.3 °C 8.4 °C 1027.7 hPa Calm   5.0 km/h 94% 0.0 mm 0 W/m2
19:27 9.3 °C 8.4 °C 1028.0 hPa NNW 3.5 km/h 5.0 km/h 94% 0.0 mm 0 W/m2
19:32 9.2 °C 8.3 °C 1027.7 hPa Calm   7.2 km/h 94% 0.0 mm 0 W/m2
19:37 9.2 °C 8.4 °C 1027.7 hPa Calm   7.2 km/h 95% 0.0 mm 0 W/m2
19:42 9.1 °C 8.3 °C 1028.0 hPa Calm   5.0 km/h 95% 0.0 mm 0 W/m2
19:48 9.0 °C 8.2 °C 1028.0 hPa NNW 2.6 km/h 6.1 km/h 95% 0.0 mm 0 W/m2
19:53 9.0 °C 8.2 °C 1028.0 hPa NNW 5.0 km/h 7.2 km/h 95% 0.0 mm 0 W/m2
19:58 9.1 °C 8.3 °C 1028.0 hPa NNW 6.1 km/h 8.7 km/h 95% 0.0 mm 0 W/m2
20:02 9.2 °C 8.4 °C 1028.0 hPa NNW 3.5 km/h 9.7 km/h 95% 0.0 mm 0 W/m2
20:08 9.4 °C 8.7 °C 1028.0 hPa NNW 8.7 km/h 12.2 km/h 95% 0.0 mm 0 W/m2
20:13 9.6 °C 8.8 °C 1028.3 hPa NNW 8.7 km/h 12.2 km/h 95% 0.0 mm 0 W/m2
20:18 9.6 °C 8.8 °C 1028.0 hPa NNW 5.0 km/h 12.2 km/h 95% 0.0 mm 0 W/m2
20:24 9.5 °C 8.6 °C 1028.3 hPa NNW 3.5 km/h 11.1 km/h 94% 0.0 mm 0 W/m2
20:28 9.4 °C 8.5 °C 1028.3 hPa NNW 2.6 km/h 9.7 km/h 94% 0.0 mm 0 W/m2
20:34 9.2 °C 8.3 °C 1028.3 hPa NNW 3.5 km/h 6.1 km/h 94% 0.0 mm 0 W/m2
20:39 9.1 °C 8.2 °C 1028.3 hPa NW 3.5 km/h 6.1 km/h 94% 0.0 mm 0 W/m2
20:43 9.0 °C 8.1 °C 1028.3 hPa NW 5.0 km/h 7.2 km/h 94% 0.0 mm 0 W/m2
20:49 8.9 °C 8.2 °C 1028.3 hPa NNW 3.5 km/h 8.7 km/h 95% 0.0 mm 0 W/m2
20:54 8.9 °C 8.2 °C 1028.3 hPa NNW 5.0 km/h 11.1 km/h 95% 0.0 mm 0 W/m2
20:59 9.0 °C 8.2 °C 1028.3 hPa NNW 1.1 km/h 11.1 km/h 95% 0.0 mm 0 W/m2
21:03 9.0 °C 8.2 °C 1028.3 hPa NNW 6.1 km/h 9.7 km/h 95% 0.0 mm 0 W/m2
21:09 9.0 °C 8.2 °C 1028.7 hPa NNW 5.0 km/h 9.7 km/h 95% 0.0 mm 0 W/m2
21:14 8.9 °C 8.3 °C 1028.3 hPa NNW 3.5 km/h 9.7 km/h 96% 0.0 mm 0 W/m2
21:19 8.8 °C 8.2 °C 1028.7 hPa NNW 5.0 km/h 9.7 km/h 96% 0.0 mm 0 W/m2
21:24 8.8 °C 8.2 °C 1028.7 hPa NNW 3.5 km/h 9.7 km/h 96% 0.0 mm 0 W/m2
21:29 8.7 °C 8.1 °C 1028.7 hPa NW 6.1 km/h 8.7 km/h 96% 0.0 mm 0 W/m2
21:34 8.6 °C 7.8 °C 1028.7 hPa NW 6.1 km/h 8.7 km/h 95% 0.0 mm 0 W/m2
21:40 8.4 °C 7.7 °C 1028.7 hPa NW 5.0 km/h 8.7 km/h 95% 0.0 mm 0 W/m2
21:46 8.4 °C 7.8 °C 1028.7 hPa NW 5.0 km/h 8.7 km/h 96% 0.0 mm 0 W/m2
21:51 8.3 °C 7.7 °C 1028.3 hPa NW 6.1 km/h 8.7 km/h 96% 0.0 mm 0 W/m2
21:55 8.3 °C 7.7 °C 1028.3 hPa NW 3.5 km/h 11.1 km/h 96% 0.0 mm 0 W/m2
22:01 8.2 °C 7.6 °C 1028.7 hPa NNW 6.1 km/h 11.1 km/h 96% 0.0 mm 0 W/m2
22:06 8.2 °C 7.6 °C 1028.3 hPa NW 5.0 km/h 9.7 km/h 96% 0.0 mm 0 W/m2
22:11 8.1 °C 7.5 °C 1028.3 hPa NW 6.1 km/h 9.7 km/h 96% 0.0 mm 0 W/m2
22:15 8.0 °C 7.4 °C 1028.3 hPa NW 6.1 km/h 8.7 km/h 96% 0.0 mm 0 W/m2
22:21 8.0 °C 7.6 °C 1028.3 hPa NW 5.0 km/h 8.7 km/h 97% 0.0 mm 0 W/m2
22:27 7.9 °C 7.4 °C 1028.3 hPa NNW 5.0 km/h 9.7 km/h 97% 0.0 mm 0 W/m2
22:32 7.9 °C 7.4 °C 1028.3 hPa NNW 5.0 km/h 9.7 km/h 97% 0.0 mm 0 W/m2
22:36 7.8 °C 7.3 °C 1028.3 hPa NNW 5.0 km/h 9.7 km/h 97% 0.0 mm 0 W/m2
22:42 7.8 °C 7.3 °C 1028.3 hPa NNW 5.0 km/h 8.7 km/h 97% 0.0 mm 0 W/m2
22:47 7.7 °C 7.3 °C 1028.3 hPa NW 6.1 km/h 8.7 km/h 97% 0.0 mm 0 W/m2
22:51 7.7 °C 7.3 °C 1028.0 hPa NW 3.5 km/h 9.7 km/h 97% 0.0 mm 0 W/m2
22:57 7.6 °C 7.2 °C 1028.0 hPa NW 5.0 km/h 9.7 km/h 97% 0.0 mm 0 W/m2
23:01 7.6 °C 7.2 °C 1028.0 hPa NW 5.0 km/h 8.7 km/h 97% 0.0 mm 0 W/m2
23:06 7.5 °C 7.1 °C 1028.3 hPa NNW 5.0 km/h 8.7 km/h 97% 0.0 mm 0 W/m2
23:11 7.4 °C 6.9 °C 1028.3 hPa NNW 6.1 km/h 8.7 km/h 97% 0.0 mm 0 W/m2
23:17 7.4 °C 6.9 °C 1028.0 hPa NW 5.0 km/h 9.7 km/h 97% 0.0 mm 0 W/m2
23:21 7.4 °C 6.9 °C 1028.0 hPa NNW 6.1 km/h 9.7 km/h 97% 0.0 mm 0 W/m2
23:26 7.3 °C 6.8 °C 1028.0 hPa NNW 6.1 km/h 9.7 km/h 97% 0.0 mm 0 W/m2
23:32 7.3 °C 6.8 °C 1028.3 hPa NW 5.0 km/h 11.1 km/h 97% 0.0 mm 0 W/m2
23:38 7.2 °C 6.8 °C 1028.3 hPa NNW 5.0 km/h 11.1 km/h 97% 0.0 mm 0 W/m2
23:43 7.1 °C 6.7 °C 1028.3 hPa NNW 3.5 km/h 9.7 km/h 97% 0.0 mm 0 W/m2
23:47 7.0 °C 6.6 °C 1028.0 hPa NW 5.0 km/h 7.2 km/h 97% 0.0 mm 0 W/m2
23:52 7.0 °C 6.6 °C 1028.3 hPa NNW 5.0 km/h 8.7 km/h 97% 0.0 mm 0 W/m2
23:58 7.0 °C 6.6 °C 1028.3 hPa NNW 6.1 km/h 9.7 km/h 97% 0.0 mm 0 W/m2
Northern Hawkes Bay. New Zealand Historic Data
Compliments of Weather Underground - 2 mb